Time;durP1;ratioP1;P1;durP2;ratioP2;P2;SDS_P1;SDS_P2;PMS_P1;PMS_P2;Temp;Humidity;BMP_temperature;BMP_pressure;BME280_temperature;BME280_humidity;BME280_pressure;Samples;Min_cycle;Max_cycle;Signal;HPM_P1;HPM_P2
2022/01/11 00:00:48;;;;;;;13.20;6.57;;;;;;;-5.54;100.00;100773.15;1747222;82;21014;-65
2022/01/11 00:03:16;;;;;;;13.93;6.07;;;;;;;-5.57;100.00;100774.29;1761705;80;21073;-65
2022/01/11 00:05:51;;;;;;;16.33;7.03;;;;;;;-5.59;100.00;100775.92;1775555;80;21022;-63
2022/01/11 00:08:14;;;;;;;14.83;6.40;;;;;;;-5.60;100.00;100776.33;1780278;80;21060;-64
2022/01/11 00:10:54;;;;;;;12.70;6.63;;;;;;;-5.60;100.00;100776.75;1781301;80;21157;-65
2022/01/11 00:13:21;;;;;;;12.87;6.10;;;;;;;-5.63;100.00;100774.95;1780989;80;21073;-66
2022/01/11 00:15:47;;;;;;;12.07;7.20;;;;;;;-5.65;100.00;100786.84;1781218;79;21089;-66
2022/01/11 00:18:15;;;;;;;13.53;6.57;;;;;;;-5.66;100.00;100786.35;1781056;80;21108;-64
2022/01/11 00:20:41;;;;;;;14.23;6.37;;;;;;;-5.66;100.00;100790.61;1783731;80;21070;-64
2022/01/11 00:25:43;;;;;;;21.13;6.93;;;;;;;-5.69;100.00;100793.52;1783724;80;21064;-65
2022/01/11 00:28:14;;;;;;;13.20;6.50;;;;;;;-5.67;100.00;100794.02;1783643;80;21132;-65
2022/01/11 00:30:47;;;;;;;11.17;6.17;;;;;;;-5.65;100.00;100801.36;1782943;80;21029;-64
2022/01/11 00:33:19;;;;;;;13.30;6.60;;;;;;;-5.64;100.00;100803.10;1783994;80;21080;-65
2022/01/11 00:35:57;;;;;;;18.80;6.63;;;;;;;-5.63;100.00;100803.59;1783682;80;21855;-64
2022/01/11 00:38:18;;;;;;;;;;;;;;;-5.62;100.00;100798.91;1719572;82;21095;-64
2022/01/11 00:40:51;;;;;;;11.85;5.47;;;;;;;-5.63;100.00;100804.88;1701142;83;20166;-64
2022/01/11 00:43:19;;;;;;;12.87;6.50;;;;;;;-5.62;100.00;100804.04;1713560;83;21053;-64
2022/01/11 00:45:47;;;;;;;12.63;6.30;;;;;;;-5.62;100.00;100804.04;1750290;80;21431;-65
2022/01/11 00:48:14;;;;;;;14.37;6.30;;;;;;;-5.64;100.00;100804.38;1749860;82;21719;-65
2022/01/11 00:50:40;;;;;;;15.23;7.13;;;;;;;-5.65;100.00;100803.94;1749989;82;21537;-65
2022/01/11 00:53:08;;;;;;;13.27;6.53;;;;;;;-5.65;100.00;100807.78;1750159;82;21060;-65
2022/01/11 00:55:35;;;;;;;13.27;6.60;;;;;;;-5.66;100.00;100809.45;1750094;82;21089;-65
2022/01/11 00:58:02;;;;;;;13.60;6.53;;;;;;;-5.66;100.00;100812.42;1713847;83;21505;-66
2022/01/11 01:00:36;;;;;;;12.53;5.93;;;;;;;-5.69;100.00;100810.20;1750044;80;21065;-64
2022/01/11 01:03:03;;;;;;;11.77;6.70;;;;;;;-5.67;100.00;100810.69;1749987;82;21060;-66
2022/01/11 01:05:29;;;;;;;12.40;6.70;;;;;;;-5.71;100.00;100810.55;1750315;82;21131;-65
2022/01/11 01:07:56;;;;;;;12.97;6.13;;;;;;;-5.70;100.00;100813.60;1750102;82;21033;-65
2022/01/11 01:10:26;;;;;;;15.63;6.50;;;;;;;-5.70;100.00;100812.31;1750266;82;21100;-66
2022/01/11 01:12:54;;;;;;;15.25;6.42;;;;;;;-5.67;100.00;100817.11;1714362;83;21307;-64
2022/01/11 01:15:22;;;;;;;12.17;6.40;;;;;;;-5.68;100.00;100817.52;1750280;80;21524;-65
2022/01/11 01:17:49;;;;;;;12.97;5.90;;;;;;;-5.68;100.00;100820.09;1750039;82;21053;-66
2022/01/11 01:20:15;;;;;;;9.90;5.73;;;;;;;-5.66;100.00;100820.13;1709310;83;21077;-64
2022/01/11 01:22:42;;;;;;;13.33;6.43;;;;;;;-5.64;100.00;100834.77;1742299;82;21660;-64
2022/01/11 01:25:10;;;;;;;12.10;6.03;;;;;;;-5.65;100.00;100831.74;1706214;83;22159;-65
2022/01/11 01:27:37;;;;;;;13.13;5.70;;;;;;;-5.63;100.00;100833.09;1720259;82;21077;-65
2022/01/11 01:30:06;;;;;;;12.17;6.27;;;;;;;-5.67;100.00;100829.94;1741884;82;21041;-64
2022/01/11 01:32:32;;;;;;;13.47;5.73;;;;;;;-5.68;100.00;100835.48;1706596;84;21037;-64
2022/01/11 01:35:03;;;;;;;12.77;6.50;;;;;;;-5.66;100.00;100838.09;1741926;81;21092;-65
2022/01/11 01:37:27;;;;;;;12.57;6.13;;;;;;;-5.67;100.00;100836.35;1741374;81;21332;-66
2022/01/11 01:39:53;;;;;;;11.13;5.57;;;;;;;-5.67;100.00;100840.20;1741974;82;21081;-65
2022/01/11 01:42:26;;;;;;;12.23;6.33;;;;;;;-5.65;100.00;100836.01;1742273;82;21609;-65
2022/01/11 01:44:52;;;;;;;11.93;5.87;;;;;;;-5.69;100.00;100838.43;1742349;82;21088;-68
2022/01/11 01:47:18;;;;;;;9.83;5.67;;;;;;;-5.69;100.00;100842.28;1742265;81;21030;-65
2022/01/11 01:49:45;;;;;;;11.80;5.37;;;;;;;-5.70;100.00;100845.67;1742133;82;21951;-64
2022/01/11 01:52:14;;;;;;;15.77;6.30;;;;;;;-5.72;100.00;100846.43;1742205;82;21025;-65
2022/01/11 01:54:41;;;;;;;15.23;5.80;;;;;;;-5.71;100.00;100851.60;1742332;82;21050;-65
2022/01/11 01:57:08;;;;;;;13.20;6.13;;;;;;;-5.73;100.00;100852.36;1720985;82;21072;-65
2022/01/11 01:59:35;;;;;;;11.03;5.97;;;;;;;-5.75;100.00;100852.32;1742095;82;21081;-63
2022/01/11 02:02:02;;;;;;;11.50;5.80;;;;;;;-5.76;100.00;100850.55;1718431;82;21136;-63
2022/01/11 02:04:29;;;;;;;17.00;6.10;;;;;;;-5.77;100.00;100853.94;1712546;83;21069;-65
2022/01/11 02:06:56;;;;;;;11.43;6.03;;;;;;;-5.82;100.00;100850.33;1712503;82;21022;-66
2022/01/11 02:09:23;;;;;;;14.20;5.70;;;;;;;-5.78;100.00;100858.59;1712434;83;21608;-64
2022/01/11 02:11:50;;;;;;;12.60;5.90;;;;;;;-5.77;100.00;100858.20;1712993;82;21066;-66
2022/01/11 02:14:17;;;;;;;13.00;6.37;;;;;;;-5.78;100.00;100861.16;1712437;82;21129;-65
2022/01/11 02:16:44;;;;;;;14.63;6.30;;;;;;;-5.78;100.00;100859.87;1712996;83;21477;-64
2022/01/11 02:19:13;;;;;;;10.83;5.83;;;;;;;-5.79;100.00;100860.70;1710804;83;21028;-66
2022/01/11 02:21:39;;;;;;;13.90;6.37;;;;;;;-5.79;100.00;100865.83;1688097;84;21022;-64
2022/01/11 02:24:06;;;;;;;13.30;5.90;;;;;;;-5.81;100.00;100863.60;1682806;83;21094;-66
2022/01/11 02:26:33;;;;;;;11.60;5.93;;;;;;;-5.82;100.00;100868.28;1681066;83;22363;-65
2022/01/11 02:29:00;;;;;;;8.93;5.03;;;;;;;-5.82;100.00;100865.72;1711565;83;21551;-64
2022/01/11 02:31:27;;;;;;;12.23;5.53;;;;;;;-5.84;100.00;100864.77;1711875;83;21073;-65
2022/01/11 02:33:58;;;;;;;12.65;6.37;;;;;;;-5.84;100.00;100860.92;1711580;83;21069;-63
2022/01/11 02:36:30;;;;;;;14.70;7.17;;;;;;;-5.87;100.00;100863.76;1710071;83;21084;-64
2022/01/11 02:38:58;;;;;;;15.00;6.80;;;;;;;-5.90;100.00;100859.38;1711605;83;21818;-65
2022/01/11 02:41:29;;;;;;;11.53;6.50;;;;;;;-5.92;100.00;100866.13;1711654;83;21101;-64
2022/01/11 02:43:58;;;;;;;12.63;6.37;;;;;;;-5.95;100.00;100860.92;1711682;83;21138;-65
2022/01/11 02:46:27;;;;;;;11.30;5.77;;;;;;;-5.99;100.00;100866.73;1705196;83;21933;-66
2022/01/11 02:48:55;;;;;;;13.50;6.80;;;;;;;-6.00;100.00;100870.13;1683508;83;21076;-64
2022/01/11 02:51:24;;;;;;;13.97;6.10;;;;;;;-6.00;100.00;100862.42;1711676;83;21145;-64
2022/01/11 02:53:54;;;;;;;12.47;5.75;;;;;;;-6.01;100.00;100876.05;1683552;83;21116;-64
2022/01/11 02:56:21;;;;;;;15.03;6.47;;;;;;;-6.03;100.00;100880.23;1711704;83;21447;-64
2022/01/11 02:58:48;;;;;;;11.27;5.93;;;;;;;-6.05;100.00;100872.88;1711523;83;21076;-66
2022/01/11 03:01:15;;;;;;;13.10;5.53;;;;;;;-6.06;100.00;100867.29;1711652;83;21113;-64
2022/01/11 03:03:42;;;;;;;14.37;6.00;;;;;;;-6.06;100.00;100876.27;1711783;83;21148;-63
2022/01/11 03:06:09;;;;;;;11.33;6.30;;;;;;;-6.06;100.00;100872.42;1711737;83;21041;-64
2022/01/11 03:08:43;;;;;;;13.77;5.77;;;;;;;-6.06;100.00;100872.00;1711809;83;21125;-64
2022/01/11 03:11:16;;;;;;;12.13;5.70;;;;;;;-6.06;100.00;100889.09;1711953;83;21076;-65
2022/01/11 03:13:44;;;;;;;14.10;6.20;;;;;;;-6.07;100.00;100882.19;1683541;83;22003;-65
2022/01/11 03:16:12;;;;;;;12.70;6.17;;;;;;;-6.07;100.00;100886.03;1711810;83;21147;-66
2022/01/11 03:18:39;;;;;;;10.63;5.33;;;;;;;-6.09;100.00;100878.72;1711653;83;21594;-63
2022/01/11 03:21:06;;;;;;;11.73;6.07;;;;;;;-6.09;100.00;100885.13;1739353;82;21100;-64
2022/01/11 03:23:33;;;;;;;11.60;5.40;;;;;;;-6.10;100.00;100885.91;1750365;81;21627;-65
2022/01/11 03:26:01;;;;;;;9.47;4.70;;;;;;;-6.10;100.00;100891.05;1747993;81;21056;-65
2022/01/11 03:28:29;;;;;;;11.30;6.23;;;;;;;-6.09;100.00;100890.25;1725356;83;21154;-65
2022/01/11 03:30:56;;;;;;;10.20;5.37;;;;;;;-6.08;100.00;100895.84;1725335;82;21562;-64
2022/01/11 03:33:23;;;;;;;9.97;5.60;;;;;;;-6.08;100.00;100898.40;1741280;80;21138;-65
2022/01/11 03:35:50;;;;;;;10.50;5.13;;;;;;;-6.04;100.00;100905.00;1750389;80;21056;-65
2022/01/11 03:38:18;;;;;;;11.40;5.17;;;;;;;-6.03;100.00;100903.31;1750756;81;21049;-66
2022/01/11 03:40:49;;;;;;;10.97;5.63;;;;;;;-6.01;100.00;100905.53;1750633;81;21748;-64
2022/01/11 03:43:16;;;;;;;10.83;5.13;;;;;;;-6.00;100.00;100906.03;1750506;80;21054;-64
2022/01/11 03:45:42;;;;;;;13.43;5.80;;;;;;;-5.98;100.00;100904.38;1723149;81;21702;-65
2022/01/11 03:48:13;;;;;;;8.60;5.03;;;;;;;-5.94;100.00;100912.67;1750435;81;21114;-65
2022/01/11 03:50:39;;;;;;;12.43;5.63;;;;;;;-5.90;100.00;100905.55;1750616;81;21088;-65
2022/01/11 03:53:16;;;;;;;10.10;5.17;;;;;;;-5.88;100.00;100901.37;1750676;81;21788;-64
2022/01/11 03:58:26;;;;;;;12.63;5.87;;;;;;;-5.83;100.00;100904.99;1750385;82;21509;-65
2022/01/11 04:00:54;;;;;;;13.07;5.67;;;;;;;-5.81;100.00;100905.94;1750113;82;21084;-67
2022/01/11 04:03:21;;;;;;;10.33;5.67;;;;;;;-5.80;100.00;100899.98;1731572;81;21056;-65
2022/01/11 04:05:49;;;;;;;9.37;5.83;;;;;;;-5.79;100.00;100906.01;1720601;83;21154;-65
2022/01/11 04:08:15;;;;;;;12.63;6.10;;;;;;;-5.77;100.00;100909.10;1720542;83;21140;-64
2022/01/11 04:10:41;;;;;;;12.37;5.53;;;;;;;-5.77;100.00;100909.10;1724740;82;21500;-66
2022/01/11 04:13:08;;;;;;;11.43;5.80;;;;;;;-5.76;100.00;100910.84;1725403;83;21084;-65
2022/01/11 04:15:35;;;;;;;10.83;5.40;;;;;;;-5.74;100.00;100915.63;1725672;83;21566;-64
2022/01/11 04:18:01;;;;;;;16.30;5.97;;;;;;;-5.74;100.00;100922.05;1725269;83;21100;-66
2022/01/11 04:20:28;;;;;;;10.27;5.73;;;;;;;-5.73;100.00;100919.97;1725224;83;21139;-64
2022/01/11 04:22:55;;;;;;;11.17;5.80;;;;;;;-5.70;100.00;100922.65;1725204;83;21047;-64
2022/01/11 04:25:22;;;;;;;11.57;5.87;;;;;;;-5.65;100.00;100923.25;1725314;83;21064;-65
2022/01/11 04:27:50;;;;;;;12.10;5.60;;;;;;;-5.63;100.00;100933.18;1746681;82;21813;-65
2022/01/11 04:30:17;;;;;;;11.87;6.17;;;;;;;-5.62;100.00;100929.78;1750337;82;22068;-65
2022/01/11 04:35:07;;;;;;;10.10;5.57;;;;;;;-5.52;100.00;100934.47;1793813;79;22464;-66
2022/01/11 04:37:36;;;;;;;7.22;4.47;;;;;;;-5.57;100.00;100926.99;1748039;82;21556;-65
2022/01/11 04:40:04;;;;;;;9.97;5.57;;;;;;;-5.53;100.00;100939.14;1745406;82;22040;-66
2022/01/11 04:42:32;;;;;;;11.27;4.90;;;;;;;-5.51;100.00;100940.09;1717497;82;21018;-67
2022/01/11 04:45:00;;;;;;;9.17;5.20;;;;;;;-5.51;100.00;100938.80;1747991;82;21144;-65
2022/01/11 04:47:26;;;;;;;12.73;5.97;;;;;;;-5.49;100.00;100947.45;1748597;82;21109;-66
2022/01/11 04:49:55;;;;;;;10.27;6.27;;;;;;;-5.49;100.00;100950.02;1748495;82;20938;-67
2022/01/11 04:52:21;;;;;;;9.87;5.67;;;;;;;-5.49;100.00;100946.16;1748657;82;21118;-67
2022/01/11 04:54:48;;;;;;;10.60;5.40;;;;;;;-5.45;100.00;100948.42;1747487;82;20935;-69
2022/01/11 04:57:14;;;;;;;10.23;5.70;;;;;;;-5.42;100.00;100953.30;1747889;82;21057;-66
2022/01/11 04:59:42;;;;;;;9.67;5.47;;;;;;;-5.43;100.00;100959.22;1747606;82;21006;-66
2022/01/11 05:02:09;;;;;;;10.97;5.80;;;;;;;-5.43;100.00;100960.51;1747598;82;21061;-67
2022/01/11 05:04:36;;;;;;;10.23;5.50;;;;;;;-5.41;100.00;100960.58;1747706;82;21155;-68
2022/01/11 05:07:04;;;;;;;10.17;5.60;;;;;;;-5.42;100.00;100966.13;1745393;82;21581;-68
2022/01/11 05:09:31;;;;;;;11.03;5.90;;;;;;;-5.41;100.00;100976.85;1726696;82;21104;-66
2022/01/11 05:11:58;;;;;;;10.57;5.83;;;;;;;-5.40;100.00;100970.05;1717837;83;21168;-66
2022/01/11 05:14:25;;;;;;;8.33;4.57;;;;;;;-5.40;100.00;100975.19;1717919;82;21081;-67
2022/01/11 05:16:53;;;;;;;12.13;5.80;;;;;;;-5.41;100.00;100967.87;1733322;81;21422;-65
2022/01/11 05:19:19;;;;;;;9.57;5.77;;;;;;;-5.43;100.00;100970.78;1723566;82;21048;-66
2022/01/11 05:21:47;;;;;;;10.30;5.57;;;;;;;-5.40;100.00;100976.06;1726227;82;21095;-66
2022/01/11 05:24:14;;;;;;;10.53;5.33;;;;;;;-5.38;100.00;100981.23;1736486;82;21050;-67
2022/01/11 05:26:42;;;;;;;10.90;5.17;;;;;;;-5.36;100.00;100987.31;1736035;82;21010;-66
2022/01/11 05:29:08;;;;;;;10.83;5.03;;;;;;;-5.36;100.00;100985.64;1717823;83;22142;-66
2022/01/11 05:31:36;;;;;;;9.23;5.80;;;;;;;-5.35;100.00;101002.79;1688609;83;22034;-67
2022/01/11 05:34:03;;;;;;;8.43;4.77;;;;;;;-5.35;100.00;101000.22;1743580;82;21056;-67
2022/01/11 05:36:32;;;;;;;8.90;5.20;;;;;;;-5.34;100.00;101001.96;1748204;82;21069;-67
2022/01/11 05:38:59;;;;;;;7.53;4.23;;;;;;;-5.34;100.00;100991.69;1747929;82;21049;-67
2022/01/11 05:41:25;;;;;;;8.90;5.07;;;;;;;-5.33;100.00;101010.16;1748079;82;21213;-67
2022/01/11 05:43:52;;;;;;;7.97;4.50;;;;;;;-5.33;100.00;101013.13;1747785;82;21541;-67
2022/01/11 05:46:20;;;;;;;9.50;4.83;;;;;;;-5.33;100.00;101006.30;1747458;82;20998;-66
2022/01/11 05:48:47;;;;;;;9.77;4.80;;;;;;;-5.33;100.00;101020.84;1716004;82;21025;-66
2022/01/11 05:51:15;;;;;;;8.10;4.47;;;;;;;-5.32;100.00;101027.30;1743709;82;21600;-66
2022/01/11 05:53:42;;;;;;;9.27;4.27;;;;;;;-5.32;100.00;101019.59;1747802;82;22008;-67
2022/01/11 05:56:10;;;;;;;6.77;4.30;;;;;;;-5.29;100.00;101031.30;1728492;82;21053;-67
2022/01/11 05:58:37;;;;;;;8.43;4.30;;;;;;;-5.25;100.00;101027.56;1718447;83;21566;-67
2022/01/11 06:01:03;;;;;;;7.87;3.93;;;;;;;-5.23;100.00;101036.20;1718096;82;21059;-67
2022/01/11 06:03:30;;;;;;;7.57;4.07;;;;;;;-5.22;100.00;101035.38;1718032;83;21605;-67
2022/01/11 06:05:57;;;;;;;7.50;3.93;;;;;;;-5.21;100.00;101035.88;1718225;82;21753;-68
2022/01/11 06:08:24;;;;;;;5.70;3.57;;;;;;;-5.17;100.00;101042.89;1725125;82;21940;-66
2022/01/11 06:10:51;;;;;;;7.83;4.37;;;;;;;-5.15;100.00;101041.27;1747680;82;21049;-67
2022/01/11 06:13:20;;;;;;;5.67;3.43;;;;;;;-5.13;100.00;101039.61;1735567;82;21057;-67
2022/01/11 06:15:47;;;;;;;7.87;3.83;;;;;;;-5.10;100.00;101050.03;1726710;82;21609;-68
2022/01/11 06:18:16;;;;;;;6.73;3.93;;;;;;;-5.06;100.00;101054.48;1711106;82;21053;-67
2022/01/11 06:20:56;;;;;;;8.68;4.28;;;;;;;-5.03;100.00;101048.18;1746272;82;20998;-66
2022/01/11 06:23:22;;;;;;;8.17;4.00;;;;;;;-5.00;100.00;101055.13;1748155;82;21081;-67
2022/01/11 06:25:49;;;;;;;10.33;4.23;;;;;;;-5.01;100.00;101052.98;1746901;82;21089;-68
2022/01/11 06:28:16;;;;;;;13.20;5.57;;;;;;;-5.00;100.00;101049.58;1717863;82;21058;-64
2022/01/11 06:30:43;;;;;;;61.87;18.03;;;;;;;-4.97;100.00;101051.39;1718186;83;21847;-67
2022/01/11 06:33:10;;;;;;;18.30;8.20;;;;;;;-4.95;100.00;101050.63;1717907;83;21049;-69
2022/01/11 06:35:38;;;;;;;82.37;28.10;;;;;;;-4.87;100.00;101056.97;1728636;82;21110;-67
2022/01/11 06:38:06;;;;;;;202.73;63.33;;;;;;;-4.68;100.00;101053.84;1746264;82;21081;-67
2022/01/11 06:40:33;;;;;;;179.07;59.23;;;;;;;-4.19;100.00;101050.99;1680054;85;21117;-67
2022/01/11 06:42:59;;;;;;;101.65;34.03;;;;;;;-3.51;100.00;101049.16;1735847;82;22136;-68
2022/01/11 06:45:27;;;;;;;368.20;120.22;;;;;;;-2.44;100.00;101051.38;1725480;82;21656;-69
2022/01/11 06:47:55;;;;;;;312.12;110.70;;;;;;;-1.66;100.00;101044.98;1746230;82;21037;-68
2022/01/11 06:50:23;;;;;;;44.33;19.45;;;;;;;-0.76;100.00;101036.10;1717763;83;21589;-68
2022/01/11 06:52:51;;;;;;;77.53;27.45;;;;;;;-0.44;100.00;101039.81;1718108;83;21116;-67
2022/01/11 06:55:19;;;;;;;62.35;23.90;;;;;;;-0.68;100.00;101047.48;1741932;82;21152;-68
2022/01/11 06:57:49;;;;;;;169.80;59.27;;;;;;;-0.91;100.00;101055.12;1747575;82;21560;-67
2022/01/11 07:00:17;;;;;;;65.22;25.23;;;;;;;-1.19;100.00;101059.60;1734048;82;21057;-67
2022/01/11 07:02:49;;;;;;;27.45;12.07;;;;;;;-1.18;100.00;101062.62;1718581;82;21136;-68
2022/01/11 07:05:33;;;;;;;165.57;58.95;;;;;;;-1.25;100.00;101067.19;1732188;82;21080;-68
2022/01/11 07:08:00;;;;;;;40.88;17.82;;;;;;;-1.23;100.00;101072.41;1747585;82;21292;-67
2022/01/11 07:10:27;;;;;;;185.93;64.67;;;;;;;-1.16;100.00;101070.00;1746853;82;21532;-68
2022/01/11 07:12:57;;;;;;;127.20;45.83;;;;;;;-0.97;100.00;101066.17;1747681;82;21121;-67
2022/01/11 07:15:24;;;;;;;198.95;66.45;;;;;;;-0.96;100.00;101067.06;1719849;82;21037;-68
2022/01/11 07:17:51;;;;;;;20.50;8.83;;;;;;;-1.11;100.00;101071.42;1719966;82;21033;-68
2022/01/11 07:20:18;;;;;;;67.03;28.35;;;;;;;-0.96;100.00;101069.23;1739381;82;21145;-68
2022/01/11 07:22:45;;;;;;;93.07;34.40;;;;;;;-0.97;100.00;101073.06;1730171;82;21089;-67
2022/01/11 07:25:13;;;;;;;117.35;41.98;;;;;;;-0.77;100.00;101073.12;1717829;81;21069;-70
2022/01/11 07:27:41;;;;;;;54.83;20.77;;;;;;;-0.72;100.00;101077.98;1723395;82;21617;-68
2022/01/11 07:30:08;;;;;;;37.45;13.48;;;;;;;-0.83;100.00;101082.45;1731101;82;21112;-68
2022/01/11 07:32:37;;;;;;;110.40;37.95;;;;;;;-1.09;100.00;101078.38;1726465;82;21790;-67
2022/01/11 07:35:06;;;;;;;61.08;25.30;;;;;;;-1.03;100.00;101080.68;1724044;82;21030;-66
2022/01/11 07:37:33;;;;;;;63.40;24.37;;;;;;;-0.82;100.00;101083.79;1692388;82;21068;-68
2022/01/11 07:40:02;;;;;;;147.00;53.33;;;;;;;-0.71;100.00;101081.48;1740191;82;21058;-69
2022/01/11 07:42:30;;;;;;;83.30;32.93;;;;;;;-0.72;100.00;101079.28;1725819;82;21184;-68
2022/01/11 07:44:59;;;;;;;128.45;49.38;;;;;;;-0.45;100.00;101079.48;1717048;83;22001;-68
2022/01/11 07:47:27;;;;;;;54.38;22.62;;;;;;;-0.44;100.00;101078.24;1725900;82;21069;-68
2022/01/11 07:49:54;;;;;;;20.50;9.55;;;;;;;-0.58;100.00;101080.03;1746445;82;21073;-69
2022/01/11 07:52:21;;;;;;;177.80;68.57;;;;;;;-0.65;100.00;101095.41;1747008;82;21096;-67
2022/01/11 07:54:49;;;;;;;67.87;27.52;;;;;;;-0.79;100.00;101099.38;1736864;81;21050;-67
2022/01/11 07:57:16;;;;;;;40.95;16.42;;;;;;;-0.80;100.00;101098.93;1717630;82;21113;-67
2022/01/11 07:59:42;;;;;;;94.50;34.95;;;;;;;-0.98;99.37;101102.35;1718045;82;21018;-67
2022/01/11 08:02:09;;;;;;;136.47;49.53;;;;;;;-1.10;100.00;101103.78;1717755;82;21096;-65
2022/01/11 08:04:36;;;;;;;41.00;16.60;;;;;;;-1.10;100.00;101103.78;1721098;82;21541;-65
2022/01/11 08:07:04;;;;;;;162.57;63.10;;;;;;;-1.09;100.00;101110.69;1741373;82;21069;-66
2022/01/11 08:09:32;;;;;;;71.15;27.37;;;;;;;-0.92;100.00;101110.23;1715644;83;21145;-66
2022/01/11 08:11:59;;;;;;;22.35;9.98;;;;;;;-0.59;100.00;101102.45;1717659;83;21177;-66
2022/01/11 08:14:27;;;;;;;117.80;42.13;;;;;;;-0.71;100.00;101103.03;1717812;82;21923;-66
2022/01/11 08:16:54;;;;;;;61.28;24.37;;;;;;;-0.86;100.00;101105.23;1729242;82;21038;-65
2022/01/11 08:19:25;;;;;;;144.80;53.30;;;;;;;-0.66;100.00;101097.55;1732416;82;21065;-67
2022/01/11 08:21:53;;;;;;;128.12;46.83;;;;;;;-0.48;100.00;101100.13;1724299;82;21151;-66
2022/01/11 08:24:22;;;;;;;62.08;24.25;;;;;;;-0.50;100.00;101104.39;1722167;82;21013;-69
2022/01/11 08:26:50;;;;;;;59.03;22.40;;;;;;;-0.60;98.20;101111.03;1728908;82;21534;-66
2022/01/11 08:29:18;;;;;;;223.10;79.17;;;;;;;-0.77;98.62;101103.30;1731088;82;21042;-65
2022/01/11 08:31:47;;;;;;;68.97;27.00;;;;;;;-0.87;100.00;101103.07;1734705;82;21049;-65
2022/01/11 08:34:14;;;;;;;71.05;29.07;;;;;;;-0.81;100.00;101103.62;1744319;81;21564;-66
2022/01/11 08:36:44;;;;;;;54.85;21.17;;;;;;;-0.80;100.00;101105.40;1724366;82;21081;-65
2022/01/11 08:39:15;;;;;;;38.58;15.60;;;;;;;-0.69;100.00;101107.83;1702206;81;21058;-66
2022/01/11 08:41:43;;;;;;;18.62;7.60;;;;;;;-0.64;100.00;101110.11;1700463;82;21078;-66
2022/01/11 08:44:12;;;;;;;146.68;55.73;;;;;;;-0.64;100.00;101106.22;1704768;83;21584;-67
2022/01/11 08:46:43;;;;;;;48.80;19.75;;;;;;;-0.73;100.00;101109.88;1716621;83;21132;-65
2022/01/11 08:49:13;;;;;;;85.67;33.85;;;;;;;-0.72;100.00;101106.44;1716430;83;21552;-66
2022/01/11 08:51:40;;;;;;;212.38;70.97;;;;;;;-0.51;100.00;101098.31;1716667;83;21037;-65
2022/01/11 08:54:08;;;;;;;33.05;14.58;;;;;;;-0.33;100.00;101096.58;1717583;82;21104;-66
2022/01/11 08:56:35;;;;;;;88.82;34.00;;;;;;;-0.18;100.00;101091.29;1733576;82;21707;-66
2022/01/11 08:59:02;;;;;;;157.85;55.40;;;;;;;-0.03;100.00;101092.92;1733683;82;21090;-66
2022/01/11 09:01:31;;;;;;;119.22;43.25;;;;;;;0.15;100.00;101089.43;1733517;82;21101;-66
2022/01/11 09:03:59;;;;;;;79.07;31.55;;;;;;;0.45;100.00;101090.89;1733692;82;21589;-67
2022/01/11 09:06:25;;;;;;;62.38;24.90;;;;;;;0.65;100.00;101085.23;1733662;82;21026;-67
2022/01/11 09:08:52;;;;;;;88.70;36.40;;;;;;;0.74;100.00;101081.52;1712904;82;21018;-66
2022/01/11 09:11:19;;;;;;;202.97;72.50;;;;;;;0.99;100.00;101072.02;1670145;85;21152;-65
2022/01/11 09:13:47;;;;;;;70.22;27.93;;;;;;;1.25;100.00;101070.28;1717773;82;20996;-65
2022/01/11 09:16:15;;;;;;;149.50;53.90;;;;;;;1.52;100.00;101074.13;1713284;82;21138;-66
2022/01/11 09:18:43;;;;;;;56.75;23.10;;;;;;;1.60;99.95;101071.23;1674342;84;21034;-66
2022/01/11 09:21:10;;;;;;;81.55;31.35;;;;;;;1.56;99.18;101077.23;1668259;84;21723;-66
2022/01/11 09:23:38;;;;;;;27.13;13.40;;;;;;;1.46;97.53;101069.30;1678416;84;21099;-67
2022/01/11 09:26:05;;;;;;;31.77;12.73;;;;;;;1.34;91.15;101078.21;1682193;85;21040;-67
2022/01/11 09:28:33;;;;;;;65.08;27.05;;;;;;;1.14;93.83;101074.41;1680473;84;21072;-67
2022/01/11 09:30:59;;;;;;;110.25;41.95;;;;;;;1.20;100.00;101073.23;1681701;84;21121;-66
2022/01/11 09:33:26;;;;;;;110.50;43.52;;;;;;;1.52;100.00;101071.53;1636626;84;21143;-67
2022/01/11 09:35:53;;;;;;;173.30;65.52;;;;;;;1.71;100.00;101069.67;1669032;84;21134;-66
2022/01/11 09:38:22;;;;;;;116.62;44.80;;;;;;;1.87;100.00;101069.03;1678531;85;21636;-65
2022/01/11 09:40:52;;;;;;;58.10;23.35;;;;;;;2.19;100.00;101076.38;1693068;84;21484;-66
2022/01/11 09:43:22;;;;;;;127.65;51.37;;;;;;;2.58;100.00;101067.30;1666626;85;21583;-66
2022/01/11 09:45:49;;;;;;;110.72;43.25;;;;;;;2.75;100.00;101070.49;1671054;84;21061;-67
2022/01/11 09:48:22;;;;;;;138.07;54.38;;;;;;;2.95;100.00;101066.35;1656285;85;21294;-66
2022/01/11 09:50:49;;;;;;;23.05;10.20;;;;;;;3.17;100.00;101060.89;1654196;86;21627;-67
2022/01/11 09:53:15;;;;;;;87.33;32.98;;;;;;;3.22;97.92;101058.32;1656360;85;21208;-65
2022/01/11 09:55:44;;;;;;;66.53;27.73;;;;;;;3.29;91.28;101060.11;1685448;85;21097;-66
2022/01/11 09:58:12;;;;;;;82.47;34.25;;;;;;;3.19;90.81;101062.21;1671552;84;21063;-66
2022/01/11 10:00:51;;;;;;;126.62;48.80;;;;;;;3.28;94.15;101063.59;1688959;84;21339;-67
2022/01/11 10:03:20;;;;;;;51.63;20.35;;;;;;;3.42;91.53;101063.25;1677902;84;21102;-67
2022/01/11 10:05:51;;;;;;;119.30;47.20;;;;;;;3.31;85.21;101071.41;1697398;84;21047;-67
2022/01/11 10:08:27;;;;;;;48.85;20.05;;;;;;;3.21;84.37;101067.00;1687368;83;20980;-66
2022/01/11 10:10:57;;;;;;;16.12;8.03;;;;;;;3.19;87.30;101066.98;1671937;83;21209;-66
2022/01/11 10:13:42;;;;;;;15.32;6.25;;;;;;;2.88;80.10;101069.76;1659816;85;21463;-67
2022/01/11 10:16:26;;;;;;;213.87;77.72;;;;;;;2.47;80.19;101068.91;1706382;83;21041;-67
2022/01/11 10:18:55;;;;;;;28.80;14.50;;;;;;;2.59;95.26;101065.13;1676481;84;21116;-66
2022/01/11 10:21:43;;;;;;;49.77;20.80;;;;;;;2.83;90.02;101062.31;1675558;85;21097;-66
2022/01/11 10:24:41;;;;;;;56.77;24.15;;;;;;;2.95;90.80;101061.15;1665623;85;21144;-66
2022/01/11 10:27:16;;;;;;;119.20;47.78;;;;;;;3.09;91.24;101055.62;1675641;84;21157;-66
2022/01/11 10:29:53;;;;;;;17.85;9.00;;;;;;;3.21;95.11;101065.27;1679146;84;21609;-69
2022/01/11 10:32:35;;;;;;;17.32;7.97;;;;;;;2.99;78.78;101061.63;1680693;84;21077;-68
2022/01/11 10:35:16;;;;;;;34.50;13.98;;;;;;;2.52;79.72;101059.41;1675507;84;21129;-68
2022/01/11 10:37:47;;;;;;;47.30;19.60;;;;;;;1.97;78.55;101073.05;1665689;85;21114;-68
2022/01/11 10:40:21;;;;;;;61.33;25.97;;;;;;;1.58;87.00;101071.64;1663933;85;21671;-68
2022/01/11 10:42:55;;;;;;;101.15;40.35;;;;;;;1.62;95.35;101067.81;1662117;83;21017;-69
2022/01/11 10:45:33;;;;;;;152.65;58.00;;;;;;;1.81;100.00;101068.94;1667238;83;21543;-68
2022/01/11 10:48:08;;;;;;;145.43;54.42;;;;;;;1.92;97.51;101069.52;1691830;84;21063;-71
2022/01/11 10:50:40;;;;;;;107.45;42.98;;;;;;;1.96;95.73;101072.62;1667027;84;21061;-67
2022/01/11 10:53:15;;;;;;;116.88;45.52;;;;;;;2.14;98.36;101072.86;1666594;84;21483;-68
2022/01/11 10:55:43;;;;;;;25.20;11.43;;;;;;;2.33;99.10;101067.87;1637789;86;21085;-67
2022/01/11 10:58:12;;;;;;;15.43;8.10;;;;;;;2.44;97.69;101072.34;1650576;85;21659;-67
2022/01/11 11:00:43;;;;;;;111.47;45.52;;;;;;;2.42;93.95;101073.19;1635095;87;21061;-67
2022/01/11 11:03:20;;;;;;;125.18;51.58;;;;;;;2.40;100.00;101060.59;1668816;84;21073;-67
2022/01/11 11:05:58;;;;;;;113.08;44.25;;;;;;;2.47;99.83;101067.17;1677323;84;22252;-67
2022/01/11 11:08:35;;;;;;;65.90;26.37;;;;;;;2.42;97.06;101066.69;1685294;84;21111;-69
2022/01/11 11:11:23;;;;;;;95.75;37.58;;;;;;;2.45;100.00;101070.61;1678811;84;21648;-69
2022/01/11 11:14:08;;;;;;;94.97;39.00;;;;;;;2.36;100.00;101073.97;1641863;86;21062;-68
2022/01/11 11:16:38;;;;;;;45.52;20.60;;;;;;;2.45;99.42;101061.51;1678394;84;21139;-68
2022/01/11 11:19:06;;;;;;;45.05;20.30;;;;;;;2.47;98.76;101068.91;1687056;84;21180;-69
2022/01/11 11:21:37;;;;;;;74.32;30.95;;;;;;;2.50;100.00;101068.92;1666279;86;21102;-68
2022/01/11 11:24:15;;;;;;;103.33;41.63;;;;;;;2.56;100.00;101066.41;1675446;84;21102;-68